Terminal Aerodrome Forecast
Issued by NWS

Home | Current Version | Previous Version | Text Only | Print | Product List | Glossary Off
Versions: 1 2 3 4 5 6 7 8 9 10 11 12 13 14 15 16 17 18 19 20

997
FTUS43 KABR 230509 AAD
TAFPIR
TAF AMD
KPIR 230509Z 2305/2324 08015G22KT P6SM VCTS OVC025CB
     FM230900 09010KT P6SM BKN250
     FM231800 32020KT P6SM SCT250=

USA.gov is the U.S. government's official web portal to all federal, state and local government web resources and services.